Etusivu
METAR-TAF:

METAR-TAF

Lentoasemat :

Algona, Iowa, Yhdysvallat

Leveyspiiri: 43-05N, Pituuspiiri: 094-16W, korkeus merenpinnasta: 372 m

Tämänhetkinen sää

Tämä raportti tehtiin 14 minuuttia sitten, kello 10.35 UTC
Tuuli 8 kn luoteesta
Lämpötila -8°C
Kosteus 100%
Ilmanpaine 1020 hPa
Näkyvyys: 4.8 km
Pilvistä 300 ft:n korkeudessa
utua

METAR: KAXA 281035Z AUTO 31008KT 3SM BR OVC003 M08/M08 A3011 RMK A01

Aika: 04:49 (10:49 UTC)


TAF: puuttuu

Säähavainnot ja -ennusteet yli 4000 lentoasemalta (METAR- ja TAF-raportit).

Käytössä olevat sääasemat on merkitty karttaan keltaisilla ja punaisilla pisteillä.

Aseta hiiri pisteen päälle nähdäksesi sääaseman nimen.

Klikkaa sitten nähdäksesi säähavainnot ja -ennusteet.

Kartan vaihtaminen: klikkaa mustalla rastilla varustettuja vihreitä pisteitä, niin voit zoomata sisään; viivalla varustettua vihreää pistettä, niin voit zoomata ulos tai vihreitä nuolia, niin pääset viereisille kartoille.


METAR-TAF: